Private Wetterstation Wechselburg
Wetterdaten: Montag, 03.06.2013
Datum Zeit Temp. +2m Bodentemp. Temp.+5cm Temp. Wind Windchill X Diff Temp. Feuchte +2m Feuchte +5cm Sonnenschein Luftdruck Regen Wind Richtung Richtung Sonnenschein UV Taupunkt Windchill Windben
03.06.2013 00:00 8,2 C 20,0 C 9,1 C 8,4 C 8,4 C 0,2 C 93 % 93 % 0 % 1019,6 hPa 0,0 l/m 5,5 km/h (1 Bft) S-SO 157 0 min 0,0 UV-I 7,1 C 7,8 C 4,8 km/h (1 Bft)
03.06.2013 00:05 8,2 C 20,0 C 9,0 C 8,4 C 8,4 C 0,2 C 93 % 93 % 0 % 1019,6 hPa 0,0 l/m 5,5 km/h (1 Bft) S-SW 202 0 min 0,0 UV-I 7,1 C 7,8 C 6,0 km/h (2 Bft)
03.06.2013 00:10 8,1 C 20,0 C 8,9 C 8,7 C 8,7 C 0,6 C 93 % 93 % 0 % 1019,6 hPa 0,0 l/m 4,7 km/h (1 Bft) S 180 0 min 0,0 UV-I 7,0 C 8,4 C 9,7 km/h (2 Bft)
03.06.2013 00:15 8,1 C 19,9 C 8,9 C 8,6 C 8,6 C 0,5 C 93 % 93 % 0 % 1019,6 hPa 0,0 l/m 5,1 km/h (1 Bft) W-SW 247 0 min 0,0 UV-I 7,0 C 8,1 C 7,1 km/h (2 Bft)
03.06.2013 00:20 8,0 C 19,9 C 8,9 C 8,2 C 8,2 C 0,2 C 93 % 93 % 0 % 1019,6 hPa 0,0 l/m 6,1 km/h (2 Bft) S 180 0 min 0,0 UV-I 6,9 C 7,4 C 12,1 km/h (2 Bft)
03.06.2013 00:25 8,0 C 19,9 C 8,8 C 8,5 C 8,5 C 0,5 C 93 % 93 % 0 % 1019,6 hPa 0,0 l/m 5,0 km/h (1 Bft) S-SW 202 0 min 0,0 UV-I 6,9 C 8,1 C 5,3 km/h (1 Bft)
03.06.2013 00:30 8,0 C 19,9 C 8,8 C 8,5 C 8,5 C 0,5 C 93 % 93 % 0 % 1019,6 hPa 0,7 l/m 4,5 km/h (1 Bft) S 180 0 min 0,0 UV-I 6,9 C 8,5 C 5,8 km/h (2 Bft)
03.06.2013 00:35 8,0 C 19,9 C 8,8 C 8,6 C 8,6 C 0,6 C 93 % 93 % 0 % 1020,5 hPa 0,0 l/m 4,3 km/h (1 Bft) W-SW 247 0 min 0,0 UV-I 6,9 C 8,6 C 2,9 km/h (1 Bft)
03.06.2013 00:41 7,9 C 19,9 C 8,8 C 8,4 C 8,4 C 0,5 C 93 % 93 % 0 % 1020,5 hPa 0,0 l/m 4,7 km/h (1 Bft) N 0 0 min 0,0 UV-I 6,8 C 8,0 C 6,4 km/h (2 Bft)
03.06.2013 01:00 7,9 C 19,9 C 8,7 C 8,7 C 8,7 C 0,8 C 93 % 93 % 0 % 1020,0 hPa 0,0 l/m 3,4 km/h (1 Bft) S 180 0 min 0,0 UV-I 6,8 C 8,7 C 4,5 km/h (1 Bft)
03.06.2013 01:05 7,8 C 19,9 C 8,7 C 8,6 C 8,6 C 0,8 C 93 % 93 % 0 % 1020,0 hPa 0,0 l/m 4,2 km/h (1 Bft) SW 225 0 min 0,0 UV-I 6,7 C 8,6 C 5,8 km/h (2 Bft)
03.06.2013 01:10 7,9 C 19,9 C 8,7 C 8,4 C 8,4 C 0,5 C 93 % 93 % 0 % 1020,0 hPa 0,0 l/m 4,3 km/h (1 Bft) W 270 0 min 0,0 UV-I 6,8 C 8,4 C 0,0 km/h (0 Bft)
03.06.2013 01:15 7,9 C 19,9 C 8,7 C 8,4 C 8,4 C 0,5 C 93 % 93 % 0 % 1020,1 hPa 0,0 l/m 4,3 km/h (1 Bft) W-SW 247 0 min 0,0 UV-I 6,8 C 8,4 C 6,0 km/h (2 Bft)
03.06.2013 01:20 7,8 C 19,9 C 8,7 C 8,4 C 8,4 C 0,6 C 93 % 93 % 0 % 1020,1 hPa 0,0 l/m 3,9 km/h (1 Bft) W-SW 247 0 min 0,0 UV-I 6,7 C 8,4 C 4,0 km/h (1 Bft)
03.06.2013 01:25 7,7 C 19,9 C 8,7 C 8,3 C 8,3 C 0,6 C 93 % 93 % 0 % 1020,1 hPa 0,0 l/m 4,3 km/h (1 Bft) SW 225 0 min 0,0 UV-I 6,6 C 8,3 C 6,6 km/h (2 Bft)
03.06.2013 01:30 7,7 C 19,9 C 8,5 C 8,2 C 8,2 C 0,5 C 93 % 93 % 0 % 1020,1 hPa 0,0 l/m 4,5 km/h (1 Bft) SW 225 0 min 0,0 UV-I 6,6 C 8,2 C 3,5 km/h (1 Bft)
03.06.2013 01:35 7,7 C 19,9 C 8,5 C 8,5 C 8,5 C 0,8 C 93 % 93 % 0 % 1020,2 hPa 0,0 l/m 3,5 km/h (1 Bft) SW 225 0 min 0,0 UV-I 6,6 C 8,5 C 0,0 km/h (0 Bft)
03.06.2013 01:40 7,7 C 19,9 C 8,5 C 8,3 C 8,3 C 0,6 C 93 % 93 % 0 % 1020,2 hPa 0,0 l/m 3,9 km/h (1 Bft) SW 225 0 min 0,0 UV-I 6,6 C 8,3 C 7,6 km/h (2 Bft)
03.06.2013 01:45 7,6 C 19,9 C 8,4 C 8,2 C 8,2 C 0,6 C 93 % 93 % 0 % 1020,2 hPa 0,7 l/m 4,2 km/h (1 Bft) SW 225 0 min 0,0 UV-I 6,5 C 8,2 C 4,2 km/h (1 Bft)
03.06.2013 01:50 7,6 C 19,9 C 8,4 C 8,3 C 8,3 C 0,7 C 93 % 93 % 0 % 1020,2 hPa 0,0 l/m 3,9 km/h (1 Bft) S-SW 202 0 min 0,0 UV-I 6,5 C 8,3 C 6,4 km/h (2 Bft)
03.06.2013 01:55 7,7 C 19,9 C 8,5 C 8,1 C 8,1 C 0,4 C 93 % 93 % 0 % 1020,2 hPa 0,0 l/m 4,5 km/h (1 Bft) W 270 0 min 0,0 UV-I 6,6 C 8,1 C 6,4 km/h (2 Bft)
03.06.2013 02:00 7,6 C 19,9 C 8,5 C 7,8 C 7,8 C 0,2 C 93 % 93 % 0 % 1020,2 hPa 0,7 l/m 5,0 km/h (1 Bft) W-SW 247 0 min 0,0 UV-I 6,5 C 7,3 C 4,5 km/h (1 Bft)
03.06.2013 02:05 7,6 C 19,9 C 8,4 C 7,9 C 7,9 C 0,3 C 93 % 93 % 0 % 1020,2 hPa 0,0 l/m 4,7 km/h (1 Bft) N-NW 337 0 min 0,0 UV-I 6,5 C 7,5 C 3,9 km/h (1 Bft)
03.06.2013 02:10 7,5 C 19,8 C 8,3 C 7,9 C 7,9 C 0,4 C 93 % 93 % 0 % 1020,2 hPa 0,0 l/m 4,5 km/h (1 Bft) S-SW 202 0 min 0,0 UV-I 6,4 C 7,9 C 8,0 km/h (2 Bft)
03.06.2013 02:15 7,5 C 19,9 C 8,3 C 7,9 C 7,9 C 0,4 C 93 % 93 % 0 % 1020,1 hPa 0,0 l/m 4,3 km/h (1 Bft) S-SW 202 0 min 0,0 UV-I 6,4 C 7,9 C 13,2 km/h (3 Bft)
03.06.2013 02:20 7,4 C 19,9 C 8,3 C 7,7 C 7,7 C 0,3 C 93 % 93 % 0 % 1020,1 hPa 0,0 l/m 5,0 km/h (1 Bft) W 270 0 min 0,0 UV-I 6,3 C 7,1 C 7,9 km/h (2 Bft)
03.06.2013 02:25 7,5 C 19,9 C 8,3 C 7,6 C 7,6 C 0,1 C 93 % 93 % 0 % 1020,1 hPa 0,7 l/m 5,3 km/h (1 Bft) W-SW 247 0 min 0,0 UV-I 6,4 C 6,9 C 5,5 km/h (1 Bft)
03.06.2013 02:30 7,5 C 19,8 C 8,2 C 8,1 C 8,1 C 0,6 C 93 % 93 % 0 % 1020,1 hPa 0,0 l/m 4,0 km/h (1 Bft) W-SW 247 0 min 0,0 UV-I 6,4 C 8,1 C 5,6 km/h (1 Bft)
03.06.2013 02:35 7,5 C 19,8 C 8,3 C 8,2 C 8,2 C 0,7 C 93 % 93 % 0 % 1020,1 hPa 0,0 l/m 3,5 km/h (1 Bft) W-SW 247 0 min 0,0 UV-I 6,4 C 8,2 C 5,5 km/h (1 Bft)
03.06.2013 02:40 7,4 C 19,8 C 8,3 C 8,0 C 8,0 C 0,6 C 93 % 93 % 0 % 1020,1 hPa 0,0 l/m 4,2 km/h (1 Bft) S-SO 157 0 min 0,0 UV-I 6,3 C 8,0 C 4,0 km/h (1 Bft)
03.06.2013 02:45 7,3 C 19,8 C 8,3 C 7,8 C 7,8 C 0,5 C 93 % 93 % 0 % 1020,1 hPa 0,0 l/m 4,5 km/h (1 Bft) W 270 0 min 0,0 UV-I 6,2 C 7,8 C 5,1 km/h (1 Bft)
03.06.2013 02:50 7,2 C 19,8 C 8,3 C 7,6 C 7,6 C 0,4 C 93 % 93 % 0 % 1020,1 hPa 0,0 l/m 5,1 km/h (1 Bft) SW 225 0 min 0,0 UV-I 6,1 C 7,0 C 9,5 km/h (2 Bft)
03.06.2013 02:55 7,3 C 19,8 C 8,1 C 7,3 C 7,3 C 0,0 C 93 % 93 % 0 % 1020,4 hPa 0,0 l/m 5,5 km/h (1 Bft) O 90 0 min 0,0 UV-I 6,2 C 6,5 C 5,1 km/h (1 Bft)
03.06.2013 03:00 7,2 C 19,8 C 8,1 C 7,5 C 7,5 C 0,3 C 93 % 93 % 0 % 1020,4 hPa 0,0 l/m 5,0 km/h (1 Bft) W-SW 247 0 min 0,0 UV-I 6,1 C 6,9 C 13,4 km/h (3 Bft)
03.06.2013 03:05 7,2 C 19,8 C 8,1 C 7,4 C 7,4 C 0,2 C 93 % 93 % 0 % 1020,4 hPa 0,0 l/m 5,1 km/h (1 Bft) S 180 0 min 0,0 UV-I 6,1 C 6,8 C 5,5 km/h (1 Bft)
03.06.2013 03:10 7,2 C 19,8 C 8,0 C 7,4 C 7,4 C 0,2 C 93 % 93 % 0 % 1020,4 hPa 0,0 l/m 5,3 km/h (1 Bft) W 270 0 min 0,0 UV-I 6,1 C 6,7 C 8,7 km/h (2 Bft)
03.06.2013 03:15 7,2 C 19,8 C 8,0 C 7,4 C 7,4 C 0,2 C 93 % 93 % 0 % 1020,2 hPa 0,0 l/m 5,3 km/h (1 Bft) SW 225 0 min 0,0 UV-I 6,1 C 6,7 C 3,9 km/h (1 Bft)
03.06.2013 03:20 7,2 C 19,8 C 8,1 C 7,2 C 7,1 C 0,0 C 93 % 93 % 0 % 1020,2 hPa 0,0 l/m 6,1 km/h (2 Bft) SW 225 0 min 0,0 UV-I 6,1 C 6,1 C 8,7 km/h (2 Bft)
03.06.2013 03:25 7,1 C 19,8 C 8,0 C 7,0 C 6,8 C 0,0 C 93 % 93 % 0 % 1020,2 hPa 0,0 l/m 6,8 km/h (2 Bft) W-SW 247 0 min 0,0 UV-I 6,0 C 5,6 C 10,3 km/h (2 Bft)
03.06.2013 03:30 7,1 C 19,8 C 8,0 C 7,1 C 7,0 C 0,0 C 93 % 93 % 0 % 1020,2 hPa 0,0 l/m 6,1 km/h (2 Bft) W-SW 247 0 min 0,0 UV-I 6,0 C 6,0 C 16,7 km/h (3 Bft)
03.06.2013 03:35 7,1 C 19,8 C 7,9 C 7,1 C 7,1 C 0,0 C 93 % 93 % 0 % 1020,8 hPa 0,0 l/m 6,0 km/h (2 Bft) SW 225 0 min 0,0 UV-I 6,0 C 6,1 C 10,6 km/h (2 Bft)
03.06.2013 03:40 7,1 C 19,8 C 7,9 C 7,0 C 6,9 C 0,0 C 93 % 93 % 0 % 1020,8 hPa 0,0 l/m 6,1 km/h (2 Bft) SW 225 0 min 0,0 UV-I 6,0 C 5,9 C 10,6 km/h (2 Bft)
03.06.2013 03:45 7,1 C 19,7 C 7,9 C 7,0 C 6,8 C 0,0 C 93 % 93 % 0 % 1020,8 hPa 0,7 l/m 6,3 km/h (2 Bft) W-SW 247 0 min 0,0 UV-I 6,0 C 5,7 C 5,3 km/h (1 Bft)
03.06.2013 03:50 7,1 C 19,7 C 7,9 C 7,0 C 6,8 C 0,0 C 93 % 93 % 0 % 1020,8 hPa 0,0 l/m 6,1 km/h (2 Bft) W-NW 292 0 min 0,0 UV-I 6,0 C 5,8 C 6,3 km/h (2 Bft)
03.06.2013 03:55 7,0 C 19,7 C 7,9 C 7,1 C 7,1 C 0,1 C 92 % 93 % 0 % 1020,4 hPa 0,0 l/m 5,1 km/h (1 Bft) N 360 0 min 0,0 UV-I 5,8 C 6,4 C 4,8 km/h (1 Bft)
03.06.2013 04:00 6,9 C 19,7 C 7,9 C 6,9 C 6,9 C 0,0 C 92 % 93 % 0 % 1020,4 hPa 0,0 l/m 5,8 km/h (2 Bft) S-SW 202 0 min 0,0 UV-I 5,7 C 6,0 C 16,9 km/h (3 Bft)
03.06.2013 04:05 6,9 C 19,7 C 7,8 C 6,9 C 6,8 C 0,0 C 92 % 93 % 0 % 1020,4 hPa 0,0 l/m 6,1 km/h (2 Bft) SW 225 0 min 0,0 UV-I 5,7 C 5,8 C 9,8 km/h (2 Bft)
03.06.2013 04:10 6,9 C 19,7 C 7,7 C 6,9 C 6,8 C 0,0 C 92 % 93 % 0 % 1020,4 hPa 0,0 l/m 6,1 km/h (2 Bft) SW 225 0 min 0,0 UV-I 5,7 C 5,8 C 6,1 km/h (2 Bft)
03.06.2013 04:15 6,9 C 19,7 C 7,7 C 6,9 C 6,8 C 0,0 C 92 % 93 % 0 % 1020,4 hPa 0,0 l/m 5,6 km/h (1 Bft) W-SW 247 0 min 0,0 UV-I 5,7 C 5,9 C 3,7 km/h (1 Bft)
03.06.2013 04:20 6,8 C 19,7 C 7,7 C 7,5 C 7,5 C 0,7 C 92 % 93 % 0 % 1020,4 hPa 0,0 l/m 3,9 km/h (1 Bft) N-NO 22 0 min 0,0 UV-I 5,6 C 7,5 C 4,0 km/h (1 Bft)
03.06.2013 04:25 6,9 C 19,7 C 7,7 C 7,6 C 7,6 C 0,7 C 92 % 93 % 0 % 1020,4 hPa 0,0 l/m 3,7 km/h (1 Bft) SW 225 0 min 0,0 UV-I 5,7 C 7,6 C 6,1 km/h (2 Bft)
03.06.2013 04:30 6,8 C 19,7 C 7,6 C 7,5 C 7,5 C 0,7 C 92 % 93 % 0 % 1020,4 hPa 0,0 l/m 3,9 km/h (1 Bft) SW 225 0 min 0,0 UV-I 5,6 C 7,5 C 5,6 km/h (1 Bft)
03.06.2013 04:35 6,8 C 19,7 C 7,7 C 7,3 C 7,3 C 0,5 C 92 % 93 % 0 % 1020,6 hPa 0,0 l/m 4,2 km/h (1 Bft) W-SW 247 0 min 0,0 UV-I 5,6 C 7,3 C 4,5 km/h (1 Bft)
03.06.2013 04:40 6,9 C 19,7 C 7,6 C 7,2 C 7,2 C 0,3 C 92 % 93 % 0 % 1020,6 hPa 0,0 l/m 4,3 km/h (1 Bft) S 180 0 min 0,0 UV-I 5,7 C 7,2 C 3,9 km/h (1 Bft)
03.06.2013 04:45 6,8 C 19,7 C 7,6 C 7,3 C 7,3 C 0,5 C 92 % 93 % 0 % 1020,6 hPa 0,0 l/m 4,0 km/h (1 Bft) SW 225 0 min 0,0 UV-I 5,6 C 7,3 C 4,2 km/h (1 Bft)
03.06.2013 04:50 6,8 C 19,7 C 7,6 C 7,4 C 7,4 C 0,6 C 92 % 93 % 0 % 1020,6 hPa 0,0 l/m 3,7 km/h (1 Bft) W-SW 247 0 min 0,0 UV-I 5,6 C 7,4 C 5,6 km/h (1 Bft)
03.06.2013 04:55 6,7 C 19,6 C 7,6 C 7,1 C 7,1 C 0,4 C 92 % 93 % 0 % 1020,4 hPa 0,7 l/m 4,5 km/h (1 Bft) S 180 0 min 0,0 UV-I 5,5 C 7,1 C 7,1 km/h (2 Bft)
03.06.2013 05:00 6,7 C 19,6 C 7,7 C 7,0 C 7,0 C 0,3 C 92 % 93 % 0 % 1020,4 hPa 0,0 l/m 4,7 km/h (1 Bft) W-SW 247 0 min 0,0 UV-I 5,5 C 6,5 C 4,8 km/h (1 Bft)
03.06.2013 05:05 6,7 C 19,6 C 7,6 C 7,2 C 7,2 C 0,5 C 92 % 93 % 0 % 1020,4 hPa 0,0 l/m 4,2 km/h (1 Bft) S-SO 157 0 min 0,0 UV-I 5,5 C 7,2 C 3,5 km/h (1 Bft)
03.06.2013 05:10 6,7 C 19,6 C 7,6 C 6,9 C 6,9 C 0,2 C 92 % 93 % 0 % 1020,4 hPa 0,0 l/m 5,0 km/h (1 Bft) S 180 0 min 0,0 UV-I 5,5 C 6,2 C 6,3 km/h (2 Bft)
03.06.2013 05:15 6,7 C 19,6 C 7,5 C 6,7 C 6,6 C 0,0 C 92 % 93 % 0 % 1020,8 hPa 0,0 l/m 6,1 km/h (2 Bft) SW 225 0 min 0,0 UV-I 5,5 C 5,5 C 10,8 km/h (2 Bft)
03.06.2013 05:20 6,7 C 19,6 C 7,5 C 6,8 C 6,8 C 0,1 C 92 % 93 % 3 % 1020,8 hPa 0,0 l/m 5,3 km/h (1 Bft) W-SW 247 0 min 0,0 UV-I 5,5 C 6,0 C 3,7 km/h (1 Bft)
03.06.2013 05:25 6,6 C 19,6 C 7,5 C 7,2 C 7,2 C 0,6 C 92 % 93 % 16 % 1020,8 hPa 0,0 l/m 4,2 km/h (1 Bft) S 180 5 min 0,0 UV-I 5,4 C 7,2 C 2,7 km/h (1 Bft)
03.06.2013 05:30 6,6 C 19,6 C 7,6 C 7,4 C 7,4 C 0,8 C 92 % 93 % 21 % 1020,8 hPa 0,0 l/m 3,7 km/h (1 Bft) NW 315 5 min 0,0 UV-I 5,4 C 7,4 C 5,0 km/h (1 Bft)
03.06.2013 05:35 6,6 C 19,6 C 7,6 C 7,3 C 7,3 C 0,7 C 92 % 93 % 18 % 1020,9 hPa 0,0 l/m 3,9 km/h (1 Bft) S-SO 157 5 min 0,0 UV-I 5,4 C 7,3 C 4,8 km/h (1 Bft)
03.06.2013 05:40 6,7 C 19,6 C 7,6 C 7,5 C 7,5 C 0,8 C 92 % 93 % 21 % 1020,9 hPa 0,7 l/m 3,5 km/h (1 Bft) S-SW 202 5 min 0,0 UV-I 5,5 C 7,5 C 9,5 km/h (2 Bft)
03.06.2013 05:45 6,7 C 19,6 C 7,5 C 7,5 C 7,5 C 0,8 C 92 % 93 % 21 % 1020,9 hPa 0,0 l/m 3,2 km/h (1 Bft) SW 225 0 min 0,0 UV-I 5,5 C 7,5 C 5,6 km/h (1 Bft)
03.06.2013 05:50 6,7 C 19,6 C 7,6 C 7,3 C 7,3 C 0,6 C 92 % 93 % 16 % 1020,9 hPa 0,0 l/m 4,0 km/h (1 Bft) N-NW 337 0 min 0,0 UV-I 5,5 C 7,3 C 3,1 km/h (1 Bft)
03.06.2013 05:55 6,7 C 19,6 C 7,5 C 7,1 C 7,1 C 0,4 C 92 % 93 % 11 % 1021,6 hPa 0,0 l/m 4,5 km/h (1 Bft) SW 225 0 min 0,0 UV-I 5,5 C 7,1 C 5,0 km/h (1 Bft)
03.06.2013 06:00 6,7 C 19,6 C 7,6 C 6,9 C 6,9 C 0,2 C 92 % 93 % 5 % 1021,6 hPa 0,0 l/m 4,8 km/h (1 Bft) S-SW 202 0 min 0,0 UV-I 5,5 C 6,3 C 6,3 km/h (2 Bft)
03.06.2013 06:05 6,6 C 19,5 C 7,6 C 6,9 C 6,9 C 0,3 C 92 % 93 % 8 % 1021,6 hPa 0,0 l/m 4,8 km/h (1 Bft) SW 225 0 min 0,0 UV-I 5,4 C 6,3 C 8,0 km/h (2 Bft)
03.06.2013 06:10 6,6 C 19,5 C 7,5 C 6,9 C 6,9 C 0,3 C 92 % 93 % 8 % 1021,6 hPa 0,0 l/m 5,0 km/h (1 Bft) SW 225 0 min 0,0 UV-I 5,4 C 6,2 C 4,8 km/h (1 Bft)
03.06.2013 06:15 6,7 C 19,5 C 7,5 C 6,8 C 6,8 C 0,1 C 92 % 93 % 3 % 1020,9 hPa 0,0 l/m 4,8 km/h (1 Bft) S 180 0 min 0,0 UV-I 5,5 C 6,2 C 5,0 km/h (1 Bft)
03.06.2013 06:20 6,5 C 19,5 C 7,5 C 6,8 C 6,8 C 0,3 C 92 % 93 % 8 % 1020,9 hPa 0,0 l/m 5,0 km/h (1 Bft) W-SW 247 0 min 0,0 UV-I 5,3 C 6,1 C 9,5 km/h (2 Bft)
03.06.2013 06:25 6,5 C 19,5 C 7,5 C 6,9 C 6,9 C 0,4 C 92 % 93 % 11 % 1020,9 hPa 0,0 l/m 4,8 km/h (1 Bft) S 180 0 min 0,0 UV-I 5,3 C 6,3 C 3,2 km/h (1 Bft)
03.06.2013 06:30 6,5 C 19,5 C 7,5 C 7,0 C 7,0 C 0,5 C 92 % 93 % 13 % 1020,9 hPa 0,7 l/m 4,7 km/h (1 Bft) W-SW 247 0 min 0,0 UV-I 5,3 C 6,5 C 8,0 km/h (2 Bft)
03.06.2013 06:35 6,6 C 19,5 C 7,6 C 7,2 C 7,2 C 0,6 C 92 % 93 % 16 % 1021,3 hPa 0,0 l/m 4,2 km/h (1 Bft) S-SW 202 0 min 0,0 UV-I 5,4 C 7,2 C 5,5 km/h (1 Bft)
03.06.2013 06:41 6,6 C 19,5 C 7,6 C 7,5 C 7,5 C 0,9 C 92 % 93 % 24 % 1021,3 hPa 0,0 l/m 3,4 km/h (1 Bft) N 0 0 min 0,0 UV-I 5,4 C 7,5 C 7,2 km/h (2 Bft)
03.06.2013 07:00 6,7 C 19,5 C 7,7 C 7,5 C 7,5 C 0,8 C 92 % 93 % 21 % 1022,5 hPa 0,0 l/m 3,2 km/h (1 Bft) W-SW 247 0 min 0,0 UV-I 5,5 C 7,5 C 3,1 km/h (1 Bft)
03.06.2013 07:05 6,7 C 19,5 C 7,6 C 7,5 C 7,5 C 0,8 C 92 % 93 % 21 % 1022,5 hPa 0,0 l/m 3,5 km/h (1 Bft) S-SW 202 0 min 0,0 UV-I 5,5 C 7,5 C 4,3 km/h (1 Bft)
03.06.2013 07:10 6,7 C 19,5 C 7,6 C 7,3 C 7,3 C 0,6 C 92 % 93 % 16 % 1022,5 hPa 0,0 l/m 4,0 km/h (1 Bft) NW 315 0 min 0,0 UV-I 5,5 C 7,3 C 7,7 km/h (2 Bft)
03.06.2013 07:15 6,6 C 19,5 C 7,6 C 7,2 C 7,2 C 0,6 C 92 % 93 % 16 % 1021,6 hPa 0,7 l/m 4,2 km/h (1 Bft) S-SW 202 0 min 0,0 UV-I 5,4 C 7,2 C 6,8 km/h (2 Bft)
03.06.2013 07:20 6,6 C 19,4 C 7,5 C 7,1 C 7,1 C 0,5 C 92 % 93 % 13 % 1021,6 hPa 0,0 l/m 4,5 km/h (1 Bft) SW 225 0 min 0,0 UV-I 5,4 C 7,1 C 3,9 km/h (1 Bft)
03.06.2013 07:25 6,6 C 19,4 C 7,5 C 7,2 C 7,2 C 0,6 C 92 % 93 % 16 % 1021,6 hPa 0,0 l/m 4,2 km/h (1 Bft) W 270 0 min 0,0 UV-I 5,4 C 7,2 C 5,8 km/h (2 Bft)
03.06.2013 07:30 6,7 C 19,4 C 7,6 C 7,2 C 7,2 C 0,5 C 92 % 93 % 13 % 1021,6 hPa 0,0 l/m 4,2 km/h (1 Bft) W-SW 247 0 min 0,0 UV-I 5,5 C 7,2 C 3,9 km/h (1 Bft)
03.06.2013 07:35 6,7 C 19,4 C 7,6 C 7,3 C 7,3 C 0,6 C 92 % 93 % 16 % 1021,9 hPa 0,0 l/m 4,2 km/h (1 Bft) W-SW 247 0 min 0,0 UV-I 5,5 C 7,3 C 6,3 km/h (2 Bft)
03.06.2013 07:40 6,7 C 19,4 C 7,6 C 7,5 C 7,5 C 0,8 C 92 % 93 % 21 % 1021,9 hPa 0,0 l/m 3,9 km/h (1 Bft) W-SW 247 0 min 0,0 UV-I 5,5 C 7,5 C 5,6 km/h (1 Bft)
03.06.2013 07:45 6,7 C 19,4 C 7,6 C 7,7 C 7,7 C 1,0 C 92 % 93 % 26 % 1021,9 hPa 0,0 l/m 3,2 km/h (1 Bft) W-SW 247 0 min 0,0 UV-I 5,5 C 7,7 C 2,3 km/h (1 Bft)
03.06.2013 07:50 6,7 C 19,4 C 7,7 C 7,7 C 7,7 C 1,0 C 92 % 93 % 26 % 1021,9 hPa 0,0 l/m 3,4 km/h (1 Bft) SW 225 0 min 0,0 UV-I 5,5 C 7,7 C 10,9 km/h (2 Bft)
03.06.2013 07:55 6,7 C 19,4 C 7,6 C 7,5 C 7,5 C 0,8 C 92 % 93 % 21 % 1021,9 hPa 0,0 l/m 4,0 km/h (1 Bft) SW 225 0 min 0,0 UV-I 5,5 C 7,5 C 4,3 km/h (1 Bft)
03.06.2013 08:00 6,7 C 19,4 C 7,6 C 7,2 C 7,2 C 0,5 C 92 % 93 % 13 % 1021,9 hPa 0,7 l/m 4,8 km/h (1 Bft) W 270 0 min 0,0 UV-I 5,5 C 6,7 C 4,8 km/h (1 Bft)
03.06.2013 08:05 6,7 C 19,4 C 7,6 C 7,3 C 7,3 C 0,6 C 92 % 93 % 16 % 1021,9 hPa 0,0 l/m 4,5 km/h (1 Bft) W-SW 247 0 min 0,0 UV-I 5,5 C 7,3 C 1,8 km/h (1 Bft)
03.06.2013 08:10 6,6 C 19,4 C 7,7 C 7,6 C 7,6 C 1,0 C 92 % 93 % 26 % 1021,9 hPa 0,0 l/m 3,9 km/h (1 Bft) S 180 0 min 0,0 UV-I 5,4 C 7,6 C 9,5 km/h (2 Bft)
03.06.2013 08:15 6,6 C 19,4 C 7,6 C 7,7 C 7,7 C 1,1 C 92 % 93 % 29 % 1022,4 hPa 0,0 l/m 3,2 km/h (1 Bft) SW 225 0 min 0,0 UV-I 5,4 C 7,7 C 3,7 km/h (1 Bft)
03.06.2013 08:20 6,6 C 19,4 C 7,6 C 7,7 C 7,7 C 1,1 C 92 % 93 % 29 % 1022,4 hPa 0,0 l/m 3,7 km/h (1 Bft) SW 225 0 min 0,0 UV-I 5,4 C 7,7 C 7,2 km/h (2 Bft)
03.06.2013 08:25 6,6 C 19,4 C 7,6 C 7,6 C 7,6 C 1,0 C 92 % 93 % 26 % 1022,4 hPa 0,0 l/m 3,9 km/h (1 Bft) SW 225 0 min 0,0 UV-I 5,4 C 7,6 C 3,5 km/h (1 Bft)
03.06.2013 08:30 6,7 C 19,4 C 7,6 C 7,3 C 7,3 C 0,6 C 92 % 93 % 16 % 1022,4 hPa 0,0 l/m 4,7 km/h (1 Bft) SW 225 0 min 0,0 UV-I 5,5 C 6,8 C 6,9 km/h (2 Bft)
03.06.2013 08:35 6,7 C 19,4 C 7,6 C 7,2 C 7,2 C 0,5 C 92 % 93 % 13 % 1021,8 hPa 0,0 l/m 5,0 km/h (1 Bft) W 270 0 min 0,0 UV-I 5,5 C 6,6 C 6,8 km/h (2 Bft)
03.06.2013 08:40 6,6 C 19,4 C 7,6 C 7,4 C 7,4 C 0,8 C 92 % 93 % 21 % 1021,8 hPa 0,0 l/m 4,2 km/h (1 Bft) W-SW 247 0 min 0,0 UV-I 5,4 C 7,4 C 4,3 km/h (1 Bft)
03.06.2013 08:45 6,6 C 19,4 C 7,6 C 7,4 C 7,4 C 0,8 C 92 % 93 % 21 % 1021,8 hPa 0,0 l/m 4,2 km/h (1 Bft) W-SW 247 0 min 0,0 UV-I 5,4 C 7,4 C 8,7 km/h (2 Bft)
03.06.2013 08:50 6,6 C 19,3 C 7,7 C 7,7 C 7,7 C 1,1 C 92 % 93 % 29 % 1021,8 hPa 0,0 l/m 3,7 km/h (1 Bft) SW 225 0 min 0,0 UV-I 5,4 C 7,7 C 5,1 km/h (1 Bft)
03.06.2013 08:55 6,6 C 19,4 C 7,6 C 7,7 C 7,7 C 1,1 C 92 % 93 % 29 % 1022,1 hPa 0,0 l/m 3,2 km/h (1 Bft) S-SW 202 0 min 0,0 UV-I 5,4 C 7,7 C 3,7 km/h (1 Bft)
03.06.2013 09:00 6,7 C 19,3 C 7,6 C 7,8 C 7,8 C 1,1 C 92 % 93 % 29 % 1022,1 hPa 0,0 l/m 2,7 km/h (1 Bft) S-SW 202 0 min 0,0 UV-I 5,5 C 7,8 C 2,9 km/h (1 Bft)
03.06.2013 09:05 6,7 C 19,3 C 7,6 C 7,9 C 7,9 C 1,2 C 92 % 93 % 32 % 1022,1 hPa 0,0 l/m 2,9 km/h (1 Bft) S-SO 157 0 min 0,0 UV-I 5,5 C 7,9 C 2,1 km/h (1 Bft)
03.06.2013 09:10 6,7 C 19,3 C 7,6 C 8,0 C 8,0 C 1,3 C 92 % 93 % 34 % 1022,1 hPa 0,0 l/m 3,2 km/h (1 Bft) S 180 0 min 0,0 UV-I 5,5 C 8,0 C 3,2 km/h (1 Bft)
03.06.2013 09:15 6,7 C 19,3 C 7,6 C 7,9 C 7,9 C 1,2 C 92 % 93 % 32 % 1021,8 hPa 0,0 l/m 3,4 km/h (1 Bft) W 270 0 min 0,0 UV-I 5,5 C 7,9 C 4,2 km/h (1 Bft)
03.06.2013 09:20 6,7 C 19,3 C 7,6 C 7,4 C 7,4 C 0,7 C 92 % 93 % 18 % 1021,8 hPa 0,0 l/m 4,3 km/h (1 Bft) W-SW 247 0 min 0,0 UV-I 5,5 C 7,4 C 15,3 km/h (3 Bft)
03.06.2013 09:25 6,6 C 19,3 C 7,6 C 7,4 C 7,4 C 0,8 C 92 % 93 % 21 % 1021,8 hPa 0,0 l/m 4,3 km/h (1 Bft) SW 225 0 min 0,0 UV-I 5,4 C 7,4 C 4,7 km/h (1 Bft)
03.06.2013 09:30 6,7 C 19,3 C 7,6 C 7,6 C 7,6 C 0,9 C 92 % 93 % 24 % 1021,8 hPa 0,0 l/m 4,0 km/h (1 Bft) W-SW 247 0 min 0,0 UV-I 5,5 C 7,6 C 3,4 km/h (1 Bft)
03.06.2013 09:35 6,7 C 19,3 C 7,6 C 8,0 C 8,0 C 1,3 C 92 % 93 % 34 % 1021,8 hPa 0,0 l/m 3,1 km/h (1 Bft) SW 225 0 min 0,0 UV-I 5,5 C 8,0 C 2,7 km/h (1 Bft)
03.06.2013 09:40 6,7 C 19,3 C 7,7 C 8,1 C 8,1 C 1,4 C 92 % 93 % 37 % 1021,8 hPa 0,0 l/m 2,6 km/h (1 Bft) NW 315 0 min 0,0 UV-I 5,5 C 8,1 C 8,0 km/h (2 Bft)
03.06.2013 09:45 6,7 C 19,3 C 7,7 C 8,1 C 8,1 C 1,4 C 92 % 93 % 37 % 1021,8 hPa 0,0 l/m 2,9 km/h (1 Bft) S-SW 202 0 min 0,0 UV-I 5,5 C 8,1 C 4,7 km/h (1 Bft)
03.06.2013 09:50 6,7 C 19,3 C 7,7 C 8,3 C 8,3 C 1,6 C 92 % 93 % 42 % 1021,8 hPa 0,0 l/m 3,4 km/h (1 Bft) S 180 0 min 0,0 UV-I 5,5 C 8,3 C 4,8 km/h (1 Bft)
03.06.2013 09:55 6,8 C 19,3 C 7,9 C 8,3 C 8,3 C 1,5 C 92 % 93 % 39 % 1021,8 hPa 0,0 l/m 3,1 km/h (1 Bft) S 180 0 min 0,0 UV-I 5,6 C 8,3 C 3,1 km/h (1 Bft)
03.06.2013 10:00 6,9 C 19,3 C 7,9 C 8,4 C 8,4 C 1,5 C 92 % 93 % 39 % 1021,8 hPa 0,0 l/m 3,2 km/h (1 Bft) NW 315 0 min 0,0 UV-I 5,7 C 8,4 C 5,0 km/h (1 Bft)
03.06.2013 10:05 6,9 C 19,3 C 7,7 C 8,3 C 8,3 C 1,4 C 92 % 93 % 37 % 1021,8 hPa 0,0 l/m 3,4 km/h (1 Bft) S 180 0 min 0,0 UV-I 5,7 C 8,3 C 2,3 km/h (1 Bft)
03.06.2013 10:10 6,8 C 19,3 C 7,7 C 8,3 C 8,3 C 1,5 C 92 % 93 % 39 % 1021,8 hPa 0,0 l/m 3,4 km/h (1 Bft) W 270 0 min 0,0 UV-I 5,6 C 8,3 C 3,7 km/h (1 Bft)
03.06.2013 10:15 6,9 C 19,2 C 7,7 C 8,3 C 8,3 C 1,4 C 92 % 93 % 37 % 1021,2 hPa 0,0 l/m 3,2 km/h (1 Bft) SW 225 0 min 0,0 UV-I 5,7 C 8,3 C 6,0 km/h (2 Bft)
03.06.2013 10:20 6,8 C 19,3 C 7,7 C 8,3 C 8,3 C 1,5 C 92 % 93 % 39 % 1021,2 hPa 0,0 l/m 3,5 km/h (1 Bft) W 270 0 min 0,0 UV-I 5,6 C 8,3 C 3,4 km/h (1 Bft)
03.06.2013 10:25 6,8 C 19,2 C 7,7 C 8,3 C 8,3 C 1,5 C 92 % 93 % 39 % 1021,2 hPa 0,0 l/m 3,7 km/h (1 Bft) SW 225 0 min 0,0 UV-I 5,6 C 8,3 C 5,8 km/h (2 Bft)
03.06.2013 10:30 6,8 C 19,2 C 7,7 C 8,0 C 8,0 C 1,2 C 92 % 93 % 32 % 1021,2 hPa 0,0 l/m 4,3 km/h (1 Bft) W-SW 247 0 min 0,0 UV-I 5,6 C 8,0 C 9,8 km/h (2 Bft)
03.06.2013 10:35 6,8 C 19,2 C 7,6 C 8,0 C 8,0 C 1,2 C 92 % 93 % 32 % 1021,2 hPa 0,0 l/m 4,7 km/h (1 Bft) SW 225 0 min 0,0 UV-I 5,6 C 7,6 C 5,1 km/h (1 Bft)
03.06.2013 10:40 6,7 C 19,2 C 7,7 C 8,2 C 8,2 C 1,5 C 92 % 93 % 39 % 1021,2 hPa 0,0 l/m 4,3 km/h (1 Bft) SW 225 0 min 0,0 UV-I 5,5 C 8,2 C 4,5 km/h (1 Bft)
03.06.2013 10:45 6,7 C 19,2 C 7,7 C 8,4 C 8,4 C 1,7 C 92 % 93 % 45 % 1021,2 hPa 0,0 l/m 3,4 km/h (1 Bft) W-SW 247 0 min 0,0 UV-I 5,5 C 8,4 C 3,5 km/h (1 Bft)
03.06.2013 10:50 6,8 C 19,1 C 7,6 C 8,5 C 8,5 C 1,7 C 92 % 93 % 45 % 1021,2 hPa 0,0 l/m 4,3 km/h (1 Bft) S 180 0 min 0,0 UV-I 5,6 C 8,5 C 5,0 km/h (1 Bft)
03.06.2013 10:55 6,8 C 19,1 C 7,7 C 8,2 C 8,2 C 1,4 C 91 % 93 % 37 % 1021,0 hPa 0,0 l/m 5,1 km/h (1 Bft) S 180 0 min 0,0 UV-I 5,4 C 7,7 C 5,3 km/h (1 Bft)
03.06.2013 11:00 6,9 C 19,2 C 7,9 C 8,4 C 8,4 C 1,5 C 91 % 93 % 39 % 1021,0 hPa 0,0 l/m 4,7 km/h (1 Bft) W-SW 247 0 min 0,0 UV-I 5,5 C 8,0 C 7,4 km/h (2 Bft)
03.06.2013 11:05 6,8 C 19,2 C 7,9 C 8,8 C 8,8 C 2,0 C 91 % 93 % 53 % 1021,0 hPa 0,0 l/m 4,0 km/h (1 Bft) S-SW 202 0 min 0,0 UV-I 5,4 C 8,8 C 3,1 km/h (1 Bft)
03.06.2013 11:10 6,9 C 19,1 C 7,9 C 8,4 C 8,4 C 1,5 C 91 % 93 % 39 % 1021,0 hPa 0,0 l/m 5,0 km/h (1 Bft) S 180 0 min 0,0 UV-I 5,5 C 7,9 C 7,2 km/h (2 Bft)
03.06.2013 11:15 6,8 C 19,1 C 7,7 C 8,2 C 8,2 C 1,4 C 91 % 93 % 37 % 1020,5 hPa 0,0 l/m 5,6 km/h (1 Bft) W-SW 247 0 min 0,0 UV-I 5,4 C 7,5 C 4,8 km/h (1 Bft)
03.06.2013 11:20 6,8 C 19,1 C 7,7 C 8,4 C 8,4 C 1,6 C 91 % 93 % 42 % 1020,5 hPa 0,0 l/m 5,1 km/h (1 Bft) W 270 0 min 0,0 UV-I 5,4 C 7,9 C 3,9 km/h (1 Bft)
03.06.2013 11:25 6,8 C 19,1 C 7,8 C 9,1 C 9,1 C 2,3 C 91 % 93 % 61 % 1020,5 hPa 0,0 l/m 3,9 km/h (1 Bft) S 180 0 min 0,0 UV-I 5,4 C 9,1 C 5,8 km/h (2 Bft)
03.06.2013 11:30 6,9 C 19,1 C 7,9 C 9,2 C 9,2 C 2,3 C 91 % 93 % 61 % 1020,5 hPa 0,0 l/m 3,2 km/h (1 Bft) SW 225 0 min 0,0 UV-I 5,5 C 9,2 C 4,3 km/h (1 Bft)
03.06.2013 11:35 6,9 C 19,1 C 8,0 C 9,4 C 9,4 C 2,5 C 91 % 93 % 66 % 1021,1 hPa 0,0 l/m 3,2 km/h (1 Bft) N-NW 337 0 min 0,0 UV-I 5,5 C 9,4 C 2,1 km/h (1 Bft)
03.06.2013 11:40 7,1 C 19,1 C 8,0 C 9,8 C 9,8 C 2,7 C 91 % 93 % 71 % 1021,1 hPa 0,0 l/m 3,5 km/h (1 Bft) W 270 0 min 0,0 UV-I 5,7 C 9,8 C 1,8 km/h (1 Bft)
03.06.2013 11:45 7,2 C 19,1 C 8,3 C 10,2 C 10,2 C 3,0 C 91 % 93 % 79 % 1021,1 hPa 0,0 l/m 3,1 km/h (1 Bft) W-SW 247 0 min 0,0 UV-I 5,8 C 10,2 C 3,2 km/h (1 Bft)
03.06.2013 11:50 7,2 C 19,1 C 8,3 C 10,2 C 10,2 C 3,0 C 91 % 93 % 79 % 1021,1 hPa 0,0 l/m 2,6 km/h (1 Bft) S-SO 157 0 min 0,0 UV-I 5,8 C 10,2 C 3,2 km/h (1 Bft)
03.06.2013 11:55 7,2 C 19,0 C 8,2 C 10,1 C 10,1 C 2,9 C 90 % 93 % 76 % 1021,3 hPa 0,0 l/m 3,4 km/h (1 Bft) S 180 0 min 0,0 UV-I 5,7 C 10,1 C 8,5 km/h (2 Bft)
03.06.2013 12:00 7,2 C 19,1 C 8,1 C 9,7 C 9,7 C 2,5 C 90 % 93 % 66 % 1021,3 hPa 0,0 l/m 3,9 km/h (1 Bft) S 180 0 min 0,0 UV-I 5,7 C 9,7 C 3,7 km/h (1 Bft)
03.06.2013 12:05 7,3 C 19,0 C 8,1 C 9,7 C 9,7 C 2,4 C 91 % 93 % 63 % 1021,3 hPa 0,0 l/m 3,7 km/h (1 Bft) W-SW 247 0 min 0,0 UV-I 5,9 C 9,7 C 4,2 km/h (1 Bft)
03.06.2013 12:10 7,2 C 19,0 C 8,3 C 9,7 C 9,7 C 2,5 C 90 % 93 % 66 % 1021,3 hPa 0,0 l/m 4,2 km/h (1 Bft) S 180 0 min 0,0 UV-I 5,7 C 9,7 C 5,3 km/h (1 Bft)
03.06.2013 12:15 7,3 C 19,1 C 8,3 C 10,0 C 10,0 C 2,7 C 90 % 93 % 71 % 1021,9 hPa 0,0 l/m 4,0 km/h (1 Bft) W-SW 247 0 min 0,0 UV-I 5,8 C 10,0 C 4,8 km/h (1 Bft)
03.06.2013 12:20 7,5 C 19,0 C 8,4 C 10,3 C 10,3 C 2,8 C 90 % 93 % 74 % 1021,9 hPa 0,0 l/m 3,5 km/h (1 Bft) W-SW 247 0 min 0,0 UV-I 6,0 C 10,3 C 5,3 km/h (1 Bft)
03.06.2013 12:25 7,5 C 19,0 C 8,5 C 10,3 C 10,3 C 2,8 C 90 % 93 % 74 % 1021,9 hPa 0,0 l/m 4,7 km/h (1 Bft) W-SW 247 0 min 0,0 UV-I 6,0 C 10,3 C 8,4 km/h (2 Bft)
03.06.2013 12:30 7,5 C 19,1 C 8,5 C 10,3 C 10,3 C 2,8 C 90 % 93 % 74 % 1021,9 hPa 0,0 l/m 4,7 km/h (1 Bft) W-SW 247 0 min 0,0 UV-I 6,0 C 10,3 C 2,7 km/h (1 Bft)
03.06.2013 12:35 7,6 C 19,1 C 8,4 C 10,2 C 10,2 C 2,6 C 90 % 93 % 68 % 1021,8 hPa 0,0 l/m 4,2 km/h (1 Bft) S-SW 202 0 min 0,0 UV-I 6,1 C 10,2 C 3,9 km/h (1 Bft)
03.06.2013 12:41 7,6 C 19,1 C 8,4 C 10,1 C 10,1 C 2,5 C 90 % 93 % 66 % 1021,8 hPa 0,0 l/m 3,4 km/h (1 Bft) N 0 0 min 0,0 UV-I 6,1 C 10,1 C 0,0 km/h (0 Bft)
03.06.2013 13:00 7,6 C 19,0 C 8,4 C 10,0 C 10,0 C 2,4 C 89 % 93 % 63 % 1021,7 hPa 0,0 l/m 2,7 km/h (1 Bft) SW 225 0 min 0,0 UV-I 5,9 C 10,0 C 3,9 km/h (1 Bft)
03.06.2013 13:05 7,6 C 19,0 C 8,4 C 9,7 C 9,7 C 2,1 C 89 % 93 % 55 % 1021,7 hPa 0,0 l/m 3,1 km/h (1 Bft) S-SO 157 0 min 0,0 UV-I 5,9 C 9,7 C 2,6 km/h (1 Bft)
03.06.2013 13:10 7,6 C 19,0 C 8,3 C 9,3 C 9,3 C 1,7 C 89 % 93 % 45 % 1021,7 hPa 0,0 l/m 3,2 km/h (1 Bft) SW 225 0 min 0,0 UV-I 5,9 C 9,3 C 3,2 km/h (1 Bft)
03.06.2013 13:15 7,6 C 19,1 C 8,4 C 9,2 C 9,2 C 1,6 C 89 % 93 % 42 % 1021,6 hPa 0,0 l/m 2,9 km/h (1 Bft) W-SW 247 0 min 0,0 UV-I 5,9 C 9,2 C 4,0 km/h (1 Bft)
03.06.2013 13:20 7,7 C 19,1 C 8,4 C 9,2 C 9,2 C 1,5 C 89 % 93 % 39 % 1021,6 hPa 0,0 l/m 3,7 km/h (1 Bft) S 180 0 min 0,0 UV-I 6,0 C 9,2 C 4,5 km/h (1 Bft)
03.06.2013 13:25 7,7 C 19,1 C 8,4 C 9,0 C 9,0 C 1,3 C 89 % 93 % 34 % 1021,6 hPa 0,0 l/m 4,5 km/h (1 Bft) S 180 0 min 0,0 UV-I 6,0 C 9,0 C 5,3 km/h (1 Bft)
03.06.2013 13:30 7,6 C 19,1 C 8,7 C 9,1 C 9,1 C 1,5 C 90 % 93 % 39 % 1021,6 hPa 0,0 l/m 4,8 km/h (1 Bft) O-NO 67 0 min 0,0 UV-I 6,1 C 8,8 C 2,4 km/h (1 Bft)
03.06.2013 13:35 7,7 C 19,1 C 8,7 C 9,4 C 9,4 C 1,7 C 90 % 93 % 45 % 1020,9 hPa 0,0 l/m 4,2 km/h (1 Bft) W-NW 292 0 min 0,0 UV-I 6,2 C 9,4 C 3,4 km/h (1 Bft)
03.06.2013 13:40 7,9 C 19,0 C 8,8 C 9,9 C 9,9 C 2,0 C 90 % 93 % 53 % 1020,9 hPa 0,0 l/m 2,4 km/h (1 Bft) SW 225 0 min 0,0 UV-I 6,4 C 9,9 C 3,1 km/h (1 Bft)
03.06.2013 13:45 7,9 C 19,1 C 8,9 C 10,2 C 10,2 C 2,3 C 90 % 93 % 61 % 1020,9 hPa 0,0 l/m 2,1 km/h (1 Bft) W-SW 247 0 min 0,0 UV-I 6,4 C 10,2 C 3,7 km/h (1 Bft)
03.06.2013 13:50 8,1 C 19,1 C 9,0 C 10,6 C 10,6 C 2,5 C 90 % 93 % 66 % 1020,9 hPa 0,0 l/m 2,4 km/h (1 Bft) S 180 0 min 0,0 UV-I 6,6 C 10,6 C 3,4 km/h (1 Bft)
03.06.2013 13:55 8,3 C 19,0 C 9,3 C 11,0 C 11,0 C 2,7 C 90 % 93 % 71 % 1021,3 hPa 0,0 l/m 2,3 km/h (1 Bft) W-NW 292 0 min 0,0 UV-I 6,8 C 11,0 C 4,3 km/h (1 Bft)
03.06.2013 14:00 8,4 C 19,0 C 9,3 C 11,2 C 11,2 C 2,8 C 90 % 93 % 74 % 1021,3 hPa 0,0 l/m 2,7 km/h (1 Bft) S 180 0 min 0,0 UV-I 6,9 C 11,2 C 2,4 km/h (1 Bft)
03.06.2013 14:05 8,4 C 19,0 C 9,2 C 11,1 C 11,1 C 2,7 C 90 % 93 % 71 % 1021,3 hPa 0,0 l/m 2,9 km/h (1 Bft) S 180 0 min 0,0 UV-I 6,9 C 11,1 C 4,8 km/h (1 Bft)
03.06.2013 14:10 8,4 C 19,0 C 9,2 C 10,9 C 10,9 C 2,5 C 89 % 93 % 66 % 1021,3 hPa 0,0 l/m 3,2 km/h (1 Bft) W 270 0 min 0,0 UV-I 6,7 C 10,9 C 3,9 km/h (1 Bft)
03.06.2013 14:15 8,5 C 19,0 C 9,3 C 10,7 C 10,7 C 2,2 C 89 % 93 % 58 % 1022,2 hPa 0,0 l/m 3,1 km/h (1 Bft) S-SO 157 0 min 0,0 UV-I 6,8 C 10,7 C 0,0 km/h (0 Bft)
03.06.2013 14:20 8,6 C 18,9 C 9,5 C 10,8 C 10,8 C 2,2 C 89 % 93 % 58 % 1022,2 hPa 0,0 l/m 2,3 km/h (1 Bft) SW 225 0 min 0,0 UV-I 6,9 C 10,8 C 3,1 km/h (1 Bft)
03.06.2013 14:25 8,7 C 18,9 C 9,5 C 10,9 C 10,9 C 2,2 C 89 % 93 % 58 % 1022,2 hPa 0,0 l/m 2,6 km/h (1 Bft) W-SW 247 0 min 0,0 UV-I 7,0 C 10,9 C 2,6 km/h (1 Bft)
03.06.2013 14:30 8,8 C 18,8 C 9,7 C 11,2 C 11,2 C 2,4 C 90 % 93 % 63 % 1022,2 hPa 0,0 l/m 2,4 km/h (1 Bft) S 180 0 min 0,0 UV-I 7,3 C 11,2 C 3,9 km/h (1 Bft)
03.06.2013 14:35 8,9 C 18,7 C 9,8 C 11,2 C 11,2 C 2,3 C 90 % 93 % 61 % 1021,6 hPa 0,0 l/m 2,4 km/h (1 Bft) S-SO 157 0 min 0,0 UV-I 7,4 C 11,2 C 2,6 km/h (1 Bft)
03.06.2013 14:40 8,9 C 18,6 C 9,7 C 11,1 C 11,1 C 2,2 C 89 % 93 % 58 % 1021,6 hPa 0,0 l/m 3,4 km/h (1 Bft) W-SW 247 0 min 0,0 UV-I 7,2 C 11,1 C 5,8 km/h (2 Bft)
03.06.2013 14:45 8,9 C 18,6 C 9,7 C 11,0 C 11,0 C 2,1 C 89 % 93 % 55 % 1021,6 hPa 0,0 l/m 3,9 km/h (1 Bft) W-SW 247 0 min 0,0 UV-I 7,2 C 11,0 C 3,2 km/h (1 Bft)
03.06.2013 14:50 9,1 C 18,6 C 9,8 C 10,9 C 10,9 C 1,8 C 89 % 93 % 47 % 1021,6 hPa 0,0 l/m 4,0 km/h (1 Bft) W-NW 292 0 min 0,0 UV-I 7,4 C 10,9 C 4,7 km/h (1 Bft)
03.06.2013 14:55 9,1 C 18,6 C 9,8 C 10,9 C 10,9 C 1,8 C 89 % 93 % 47 % 1021,2 hPa 0,0 l/m 3,9 km/h (1 Bft) N-NW 337 0 min 0,0 UV-I 7,4 C 10,9 C 3,5 km/h (1 Bft)
03.06.2013 15:00 9,0 C 18,6 C 9,8 C 10,9 C 10,9 C 1,9 C 89 % 93 % 50 % 1021,2 hPa 0,0 l/m 3,2 km/h (1 Bft) S 180 0 min 0,0 UV-I 7,3 C 10,9 C 0,0 km/h (0 Bft)
03.06.2013 15:05 9,1 C 18,6 C 9,9 C 11,0 C 11,0 C 1,9 C 89 % 93 % 50 % 1021,2 hPa 0,0 l/m 2,6 km/h (1 Bft) S 180 0 min 0,0 UV-I 7,4 C 11,0 C 5,0 km/h (1 Bft)
03.06.2013 15:10 9,2 C 18,6 C 10,1 C 11,1 C 11,1 C 1,9 C 89 % 93 % 50 % 1021,2 hPa 0,0 l/m 2,9 km/h (1 Bft) SW 225 0 min 0,0 UV-I 7,5 C 11,1 C 5,5 km/h (1 Bft)
03.06.2013 15:15 9,2 C 18,6 C 10,0 C 11,2 C 11,2 C 2,0 C 89 % 93 % 53 % 1021,3 hPa 0,0 l/m 3,4 km/h (1 Bft) SW 225 0 min 0,0 UV-I 7,5 C 11,2 C 8,5 km/h (2 Bft)
03.06.2013 15:20 9,3 C 18,6 C 10,1 C 11,2 C 11,2 C 1,9 C 89 % 93 % 50 % 1021,3 hPa 0,7 l/m 3,4 km/h (1 Bft) SW 225 0 min 0,0 UV-I 7,6 C 11,2 C 6,1 km/h (2 Bft)
03.06.2013 15:25 9,3 C 18,6 C 10,1 C 11,2 C 11,2 C 1,9 C 89 % 93 % 50 % 1021,3 hPa 0,0 l/m 3,2 km/h (1 Bft) W-NW 292 0 min 0,0 UV-I 7,6 C 11,2 C 2,9 km/h (1 Bft)
03.06.2013 15:30 9,5 C 18,6 C 10,3 C 11,1 C 11,1 C 1,6 C 89 % 93 % 42 % 1021,3 hPa 0,0 l/m 2,9 km/h (1 Bft) SW 225 0 min 0,0 UV-I 7,8 C 11,1 C 4,5 km/h (1 Bft)
03.06.2013 15:35 9,5 C 18,6 C 10,2 C 11,1 C 11,1 C 1,6 C 89 % 93 % 42 % 1021,1 hPa 0,0 l/m 2,9 km/h (1 Bft) S 180 0 min 0,0 UV-I 7,8 C 11,1 C 3,4 km/h (1 Bft)
03.06.2013 15:40 9,5 C 18,6 C 10,1 C 11,0 C 11,0 C 1,5 C 89 % 93 % 39 % 1021,1 hPa 0,0 l/m 3,1 km/h (1 Bft) SW 225 0 min 0,0 UV-I 7,8 C 11,0 C 7,9 km/h (2 Bft)
03.06.2013 15:45 9,4 C 18,6 C 10,1 C 10,9 C 10,9 C 1,5 C 89 % 93 % 39 % 1021,1 hPa 0,0 l/m 3,1 km/h (1 Bft) NW 315 0 min 0,0 UV-I 7,7 C 10,9 C 3,9 km/h (1 Bft)
03.06.2013 15:50 9,4 C 18,6 C 10,1 C 10,9 C 10,9 C 1,5 C 89 % 93 % 39 % 1021,1 hPa 0,0 l/m 3,1 km/h (1 Bft) S-SW 202 0 min 0,0 UV-I 7,7 C 10,9 C 3,9 km/h (1 Bft)
03.06.2013 15:55 9,5 C 18,6 C 10,1 C 11,0 C 11,0 C 1,5 C 89 % 93 % 39 % 1021,8 hPa 0,0 l/m 2,3 km/h (1 Bft) SW 225 0 min 0,0 UV-I 7,8 C 11,0 C 3,1 km/h (1 Bft)
03.06.2013 16:00 9,5 C 18,6 C 10,3 C 11,0 C 11,0 C 1,5 C 89 % 93 % 39 % 1021,8 hPa 0,0 l/m 1,8 km/h (1 Bft) O-NO 67 0 min 0,0 UV-I 7,8 C 11,0 C 2,7 km/h (1 Bft)
03.06.2013 16:05 9,5 C 18,6 C 10,3 C 11,0 C 11,0 C 1,5 C 89 % 93 % 39 % 1021,8 hPa 0,0 l/m 1,9 km/h (1 Bft) SW 225 0 min 0,0 UV-I 7,8 C 11,0 C 2,7 km/h (1 Bft)
03.06.2013 16:10 9,5 C 18,6 C 10,3 C 11,1 C 11,1 C 1,6 C 89 % 93 % 42 % 1021,8 hPa 0,0 l/m 1,9 km/h (1 Bft) SO 135 0 min 0,0 UV-I 7,8 C 11,1 C 4,0 km/h (1 Bft)
03.06.2013 16:15 9,6 C 18,6 C 10,3 C 11,1 C 11,1 C 1,5 C 89 % 93 % 39 % 1021,1 hPa 0,0 l/m 1,9 km/h (1 Bft) S 180 0 min 0,0 UV-I 7,9 C 11,1 C 2,1 km/h (1 Bft)
03.06.2013 16:20 9,6 C 18,6 C 10,5 C 11,3 C 11,3 C 1,7 C 89 % 93 % 45 % 1021,1 hPa 0,0 l/m 1,9 km/h (1 Bft) W-SW 247 0 min 0,0 UV-I 7,9 C 11,3 C 3,2 km/h (1 Bft)
03.06.2013 16:25 9,7 C 18,6 C 10,5 C 11,5 C 11,5 C 1,8 C 89 % 93 % 47 % 1021,1 hPa 0,0 l/m 2,1 km/h (1 Bft) S-SO 157 0 min 0,0 UV-I 8,0 C 11,5 C 2,7 km/h (1 Bft)
03.06.2013 16:30 9,9 C 18,6 C 10,5 C 11,8 C 11,8 C 1,9 C 90 % 93 % 50 % 1021,1 hPa 0,0 l/m 1,1 km/h (1 Bft) S 180 0 min 0,0 UV-I 8,3 C 11,8 C 0,0 km/h (0 Bft)
03.06.2013 16:35 9,9 C 18,6 C 10,5 C 11,9 C 11,9 C 2,0 C 90 % 93 % 53 % 1021,1 hPa 0,0 l/m 0,3 km/h (0 Bft) W 270 0 min 0,0 UV-I 8,3 C 11,9 C 0,0 km/h (0 Bft)
03.06.2013 16:40 10,0 C 18,6 C 10,7 C 12,0 C 12,0 C 2,0 C 90 % 93 % 53 % 1021,1 hPa 0,0 l/m 0,0 km/h (0 Bft) SW 225 0 min 0,0 UV-I 8,4 C 12,0 C 0,0 km/h (0 Bft)
03.06.2013 16:45 10,0 C 18,6 C 10,7 C 12,0 C 12,0 C 2,0 C 90 % 93 % 53 % 1021,1 hPa 0,0 l/m 0,3 km/h (0 Bft) W-SW 247 0 min 0,0 UV-I 8,4 C 12,0 C 2,9 km/h (1 Bft)
03.06.2013 16:50 10,1 C 18,6 C 10,7 C 12,1 C 12,1 C 2,0 C 90 % 93 % 53 % 1021,1 hPa 0,0 l/m 0,3 km/h (0 Bft) SW 225 0 min 0,0 UV-I 8,5 C 12,1 C 0,0 km/h (0 Bft)
03.06.2013 16:55 10,1 C 18,6 C 10,7 C 12,1 C 12,1 C 2,0 C 90 % 93 % 53 % 1020,8 hPa 0,0 l/m 0,2 km/h (0 Bft) W-SW 247 0 min 0,0 UV-I 8,5 C 12,1 C 0,0 km/h (0 Bft)
03.06.2013 17:00 10,2 C 18,6 C 10,6 C 12,0 C 12,0 C 1,8 C 90 % 93 % 47 % 1020,8 hPa 0,0 l/m 0,0 km/h (0 Bft) S 180 0 min 0,0 UV-I 8,6 C 12,0 C 0,0 km/h (0 Bft)
03.06.2013 17:05 10,1 C 18,6 C 10,7 C 12,0 C 12,0 C 1,9 C 90 % 93 % 50 % 1020,8 hPa 0,0 l/m 0,0 km/h (0 Bft) S 180 0 min 0,0 UV-I 8,5 C 12,0 C 0,0 km/h (0 Bft)
03.06.2013 17:10 10,2 C 18,6 C 10,6 C 11,9 C 11,9 C 1,7 C 90 % 93 % 45 % 1020,8 hPa 0,0 l/m 0,0 km/h (0 Bft) O-NO 67 0 min 0,0 UV-I 8,6 C 11,9 C 0,0 km/h (0 Bft)
03.06.2013 17:15 10,3 C 18,6 C 10,7 C 11,8 C 11,8 C 1,5 C 90 % 93 % 39 % 1020,9 hPa 0,0 l/m 0,0 km/h (0 Bft) SO 135 0 min 0,0 UV-I 8,7 C 11,8 C 0,0 km/h (0 Bft)
03.06.2013 17:20 10,3 C 18,7 C 10,6 C 11,7 C 11,7 C 1,4 C 90 % 93 % 37 % 1020,9 hPa 0,0 l/m 0,0 km/h (0 Bft) SO 135 0 min 0,0 UV-I 8,7 C 11,7 C 0,0 km/h (0 Bft)
03.06.2013 17:25 10,3 C 18,7 C 10,7 C 11,6 C 11,6 C 1,3 C 90 % 93 % 34 % 1020,9 hPa 0,0 l/m 0,0 km/h (0 Bft) S 180 0 min 0,0 UV-I 8,7 C 11,6 C 0,0 km/h (0 Bft)
03.06.2013 17:30 10,2 C 18,8 C 10,7 C 11,5 C 11,5 C 1,3 C 90 % 93 % 34 % 1020,9 hPa 0,0 l/m 0,3 km/h (0 Bft) W-NW 292 0 min 0,0 UV-I 8,6 C 11,5 C 0,0 km/h (0 Bft)
03.06.2013 17:35 10,2 C 18,8 C 10,8 C 11,5 C 11,5 C 1,3 C 90 % 93 % 34 % 1020,7 hPa 0,0 l/m 0,3 km/h (0 Bft) W-SW 247 0 min 0,0 UV-I 8,6 C 11,5 C 0,0 km/h (0 Bft)
03.06.2013 17:40 10,2 C 18,7 C 10,8 C 11,7 C 11,7 C 1,5 C 90 % 93 % 39 % 1020,7 hPa 0,0 l/m 0,0 km/h (0 Bft) NW 315 0 min 0,0 UV-I 8,6 C 11,7 C 0,0 km/h (0 Bft)
03.06.2013 17:45 10,3 C 18,7 C 10,8 C 11,9 C 11,9 C 1,6 C 90 % 93 % 42 % 1020,7 hPa 0,0 l/m 0,0 km/h (0 Bft) O-SO 112 0 min 0,0 UV-I 8,7 C 11,9 C 0,0 km/h (0 Bft)
03.06.2013 17:50 10,4 C 18,7 C 10,8 C 12,1 C 12,1 C 1,7 C 90 % 93 % 45 % 1020,7 hPa 0,0 l/m 0,2 km/h (0 Bft) O-NO 67 0 min 0,0 UV-I 8,8 C 12,1 C 2,1 km/h (1 Bft)
03.06.2013 17:55 10,4 C 18,7 C 10,9 C 12,2 C 12,2 C 1,8 C 90 % 93 % 47 % 1020,4 hPa 0,0 l/m 0,2 km/h (0 Bft) O-NO 67 0 min 0,0 UV-I 8,8 C 12,2 C 0,0 km/h (0 Bft)
03.06.2013 18:00 10,4 C 18,7 C 10,9 C 12,4 C 12,4 C 2,0 C 90 % 93 % 53 % 1020,4 hPa 0,0 l/m 0,2 km/h (0 Bft) SW 225 0 min 0,0 UV-I 8,8 C 12,4 C 0,0 km/h (0 Bft)
03.06.2013 18:05 10,5 C 18,7 C 11,1 C 12,6 C 12,6 C 2,1 C 90 % 93 % 55 % 1020,4 hPa 0,0 l/m 0,0 km/h (0 Bft) S-SW 202 0 min 0,0 UV-I 8,9 C 12,6 C 0,0 km/h (0 Bft)
03.06.2013 18:10 10,6 C 18,7 C 11,1 C 12,5 C 12,5 C 1,9 C 90 % 93 % 50 % 1020,4 hPa 0,0 l/m 0,3 km/h (0 Bft) S 180 0 min 0,0 UV-I 9,0 C 12,5 C 0,0 km/h (0 Bft)
03.06.2013 18:15 10,7 C 18,8 C 11,0 C 12,4 C 12,4 C 1,7 C 90 % 93 % 45 % 1020,2 hPa 0,0 l/m 0,8 km/h (0 Bft) W-SW 247 0 min 0,0 UV-I 9,1 C 12,4 C 2,7 km/h (1 Bft)
03.06.2013 18:20 10,6 C 18,8 C 11,1 C 12,4 C 12,4 C 1,8 C 90 % 93 % 47 % 1020,2 hPa 0,0 l/m 1,0 km/h (0 Bft) S 180 0 min 0,0 UV-I 9,0 C 12,4 C 1,9 km/h (1 Bft)
03.06.2013 18:25 10,6 C 18,8 C 11,0 C 12,4 C 12,4 C 1,8 C 90 % 93 % 47 % 1020,2 hPa 0,0 l/m 0,8 km/h (0 Bft) S-SO 157 0 min 0,0 UV-I 9,0 C 12,4 C 0,0 km/h (0 Bft)
03.06.2013 18:30 10,5 C 18,7 C 11,1 C 12,3 C 12,3 C 1,8 C 90 % 93 % 47 % 1020,2 hPa 0,0 l/m 0,6 km/h (0 Bft) S-SO 157 0 min 0,0 UV-I 8,9 C 12,3 C 0,0 km/h (0 Bft)
03.06.2013 18:35 10,5 C 18,7 C 11,2 C 12,4 C 12,4 C 1,9 C 90 % 93 % 50 % 1020,1 hPa 0,0 l/m 0,3 km/h (0 Bft) O-SO 112 0 min 0,0 UV-I 8,9 C 12,4 C 0,0 km/h (0 Bft)
03.06.2013 18:41 10,7 C 18,7 C 11,3 C 12,5 C 12,5 C 1,8 C 90 % 93 % 47 % 1020,1 hPa 0,0 l/m 0,2 km/h (0 Bft) N 0 0 min 0,0 UV-I 9,1 C 12,5 C 0,0 km/h (0 Bft)
03.06.2013 18:56 10,6 C 18,7 C 11,2 C 12,6 C 12,6 C 2,0 C 90 % 92 % 53 % 1020,1 hPa 0,0 l/m 1,0 km/h (0 Bft) S 180 0 min 0,0 UV-I 9,0 C 12,6 C 0,0 km/h (0 Bft)
03.06.2013 19:00 10,7 C 18,7 C 11,3 C 12,6 C 12,6 C 1,9 C 90 % 92 % 50 % 1020,1 hPa 0,0 l/m 1,1 km/h (1 Bft) S-SW 202 0 min 0,0 UV-I 9,1 C 12,6 C 1,9 km/h (1 Bft)
03.06.2013 19:05 10,7 C 18,7 C 11,3 C 12,6 C 12,6 C 1,9 C 90 % 92 % 50 % 1020,1 hPa 0,0 l/m 1,1 km/h (1 Bft) SO 135 0 min 0,0 UV-I 9,1 C 12,6 C 0,0 km/h (0 Bft)
03.06.2013 19:10 10,7 C 18,7 C 11,3 C 12,7 C 12,7 C 2,0 C 90 % 92 % 53 % 1020,1 hPa 0,0 l/m 0,6 km/h (0 Bft) S 180 0 min 0,0 UV-I 9,1 C 12,7 C 0,0 km/h (0 Bft)
03.06.2013 19:15 10,8 C 18,7 C 11,3 C 12,7 C 12,7 C 1,9 C 90 % 92 % 50 % 1019,8 hPa 0,0 l/m 0,5 km/h (0 Bft) SO 135 0 min 0,0 UV-I 9,2 C 12,7 C 0,0 km/h (0 Bft)
03.06.2013 19:20 10,8 C 18,7 C 11,3 C 12,7 C 12,7 C 1,9 C 90 % 92 % 50 % 1019,8 hPa 0,0 l/m 0,2 km/h (0 Bft) W 270 0 min 0,0 UV-I 9,2 C 12,7 C 0,0 km/h (0 Bft)
03.06.2013 19:25 10,8 C 18,7 C 11,3 C 12,7 C 12,7 C 1,9 C 90 % 92 % 50 % 1019,8 hPa 0,0 l/m 0,2 km/h (0 Bft) S 180 0 min 0,0 UV-I 9,2 C 12,7 C 0,0 km/h (0 Bft)
03.06.2013 19:30 10,8 C 18,7 C 11,2 C 12,7 C 12,7 C 1,9 C 90 % 92 % 50 % 1019,8 hPa 0,0 l/m 0,0 km/h (0 Bft) W-SW 247 0 min 0,0 UV-I 9,2 C 12,7 C 0,0 km/h (0 Bft)
03.06.2013 19:35 10,9 C 18,7 C 11,3 C 12,6 C 12,6 C 1,7 C 90 % 92 % 45 % 1019,9 hPa 0,0 l/m 0,0 km/h (0 Bft) W-NW 292 0 min 0,0 UV-I 9,3 C 12,6 C 0,0 km/h (0 Bft)
03.06.2013 19:40 10,8 C 18,7 C 11,3 C 12,4 C 12,4 C 1,6 C 90 % 92 % 42 % 1019,9 hPa 0,0 l/m 0,3 km/h (0 Bft) SO 135 0 min 0,0 UV-I 9,2 C 12,4 C 2,7 km/h (1 Bft)
03.06.2013 19:45 10,8 C 18,7 C 11,2 C 12,4 C 12,4 C 1,6 C 90 % 92 % 42 % 1019,9 hPa 0,0 l/m 0,5 km/h (0 Bft) S-SW 202 0 min 0,0 UV-I 9,2 C 12,4 C 0,0 km/h (0 Bft)
03.06.2013 19:50 10,8 C 18,7 C 11,3 C 12,4 C 12,4 C 1,6 C 90 % 92 % 42 % 1019,9 hPa 0,0 l/m 0,3 km/h (0 Bft) W-SW 247 0 min 0,0 UV-I 9,2 C 12,4 C 0,0 km/h (0 Bft)
03.06.2013 19:55 10,8 C 18,8 C 11,3 C 12,4 C 12,4 C 1,6 C 90 % 92 % 42 % 1020,7 hPa 0,0 l/m 0,2 km/h (0 Bft) O-SO 112 0 min 0,0 UV-I 9,2 C 12,4 C 0,0 km/h (0 Bft)
03.06.2013 20:00 10,9 C 18,8 C 11,3 C 12,4 C 12,4 C 1,5 C 90 % 92 % 39 % 1020,7 hPa 0,0 l/m 0,0 km/h (0 Bft) S 180 0 min 0,0 UV-I 9,3 C 12,4 C 0,0 km/h (0 Bft)
03.06.2013 20:05 10,9 C 18,8 C 11,4 C 12,4 C 12,4 C 1,5 C 90 % 92 % 39 % 1020,7 hPa 0,0 l/m 0,0 km/h (0 Bft) S 180 5 min 0,0 UV-I 9,3 C 12,4 C 0,0 km/h (0 Bft)
03.06.2013 20:10 10,9 C 18,8 C 11,3 C 12,4 C 12,4 C 1,5 C 90 % 92 % 39 % 1020,7 hPa 0,0 l/m 0,0 km/h (0 Bft) W-SW 247 5 min 0,0 UV-I 9,3 C 12,4 C 0,0 km/h (0 Bft)
03.06.2013 20:15 10,9 C 18,8 C 11,3 C 12,3 C 12,3 C 1,4 C 90 % 92 % 37 % 1020,1 hPa 0,0 l/m 0,0 km/h (0 Bft) O 90 5 min 0,0 UV-I 9,3 C 12,3 C 0,0 km/h (0 Bft)
03.06.2013 20:20 10,8 C 18,8 C 11,3 C 12,2 C 12,2 C 1,4 C 90 % 92 % 37 % 1020,1 hPa 0,0 l/m 0,0 km/h (0 Bft) N-NO 22 5 min 0,0 UV-I 9,2 C 12,2 C 0,0 km/h (0 Bft)
03.06.2013 20:25 10,8 C 18,8 C 11,4 C 12,1 C 12,1 C 1,3 C 90 % 92 % 34 % 1020,1 hPa 0,0 l/m 0,0 km/h (0 Bft) O-NO 67 5 min 0,0 UV-I 9,2 C 12,1 C 0,0 km/h (0 Bft)
03.06.2013 20:30 10,8 C 18,8 C 11,3 C 12,0 C 12,0 C 1,2 C 90 % 92 % 32 % 1020,1 hPa 0,0 l/m 0,0 km/h (0 Bft) S 180 5 min 0,0 UV-I 9,2 C 12,0 C 0,0 km/h (0 Bft)
03.06.2013 20:35 10,8 C 18,7 C 11,2 C 12,0 C 12,0 C 1,2 C 90 % 92 % 32 % 1020,2 hPa 0,0 l/m 0,3 km/h (0 Bft) SW 225 5 min 0,0 UV-I 9,2 C 12,0 C 0,0 km/h (0 Bft)
03.06.2013 20:40 10,7 C 18,8 C 11,2 C 11,9 C 11,9 C 1,2 C 90 % 92 % 32 % 1020,2 hPa 0,0 l/m 0,5 km/h (0 Bft) S-SW 202 5 min 0,0 UV-I 9,1 C 11,9 C 0,0 km/h (0 Bft)
03.06.2013 20:45 10,7 C 18,8 C 11,2 C 11,8 C 11,8 C 1,1 C 90 % 92 % 29 % 1020,2 hPa 0,0 l/m 0,2 km/h (0 Bft) SW 225 5 min 0,0 UV-I 9,1 C 11,8 C 0,0 km/h (0 Bft)
03.06.2013 20:50 10,7 C 18,9 C 11,2 C 11,7 C 11,7 C 1,0 C 90 % 92 % 26 % 1020,2 hPa 0,0 l/m 0,0 km/h (0 Bft) O 90 5 min 0,0 UV-I 9,1 C 11,7 C 0,0 km/h (0 Bft)
03.06.2013 20:55 10,7 C 18,9 C 11,2 C 11,7 C 11,7 C 1,0 C 90 % 93 % 26 % 1020,8 hPa 0,0 l/m 0,0 km/h (0 Bft) S 180 5 min 0,0 UV-I 9,1 C 11,7 C 0,0 km/h (0 Bft)
03.06.2013 21:00 10,6 C 18,9 C 11,2 C 11,6 C 11,6 C 1,0 C 90 % 93 % 26 % 1020,8 hPa 0,0 l/m 0,0 km/h (0 Bft) N 360 5 min 0,0 UV-I 9,0 C 11,6 C 0,0 km/h (0 Bft)
03.06.2013 21:05 10,5 C 18,9 C 11,1 C 11,6 C 11,6 C 1,1 C 90 % 93 % 0 % 1020,8 hPa 0,0 l/m 0,0 km/h (0 Bft) SO 135 0 min 0,0 UV-I 8,9 C 11,6 C 0,0 km/h (0 Bft)
03.06.2013 21:10 10,5 C 18,9 C 11,1 C 11,5 C 11,5 C 1,0 C 90 % 93 % 0 % 1020,8 hPa 0,0 l/m 0,0 km/h (0 Bft) S-SO 157 0 min 0,0 UV-I 8,9 C 11,5 C 0,0 km/h (0 Bft)
03.06.2013 21:15 10,5 C 18,9 C 11,0 C 11,4 C 11,4 C 0,9 C 90 % 93 % 0 % 1020,2 hPa 0,0 l/m 0,0 km/h (0 Bft) O-NO 67 0 min 0,0 UV-I 8,9 C 11,4 C 0,0 km/h (0 Bft)
03.06.2013 21:20 10,4 C 18,9 C 11,1 C 11,4 C 11,4 C 1,0 C 90 % 93 % 0 % 1020,2 hPa 0,0 l/m 0,0 km/h (0 Bft) SO 135 0 min 0,0 UV-I 8,8 C 11,4 C 0,0 km/h (0 Bft)
03.06.2013 21:25 10,5 C 18,9 C 11,1 C 11,4 C 11,4 C 0,9 C 90 % 93 % 0 % 1020,2 hPa 0,0 l/m 0,0 km/h (0 Bft) NO 45 0 min 0,0 UV-I 8,9 C 11,4 C 0,0 km/h (0 Bft)
03.06.2013 21:30 10,4 C 18,9 C 11,0 C 11,3 C 11,3 C 0,9 C 90 % 93 % 0 % 1020,2 hPa 0,0 l/m 0,0 km/h (0 Bft) NO 45 0 min 0,0 UV-I 8,8 C 11,3 C 0,0 km/h (0 Bft)
03.06.2013 21:35 10,4 C 18,9 C 11,0 C 11,3 C 11,3 C 0,9 C 90 % 93 % 0 % 1019,6 hPa 0,0 l/m 0,0 km/h (0 Bft) SW 225 0 min 0,0 UV-I 8,8 C 11,3 C 0,0 km/h (0 Bft)
03.06.2013 21:40 10,3 C 18,9 C 10,9 C 11,2 C 11,2 C 0,9 C 90 % 92 % 0 % 1019,6 hPa 0,0 l/m 0,0 km/h (0 Bft) O-SO 112 0 min 0,0 UV-I 8,7 C 11,2 C 0,0 km/h (0 Bft)
03.06.2013 21:45 10,3 C 18,9 C 10,9 C 11,2 C 11,2 C 0,9 C 90 % 92 % 0 % 1019,6 hPa 0,0 l/m 0,0 km/h (0 Bft) S 180 0 min 0,0 UV-I 8,7 C 11,2 C 0,0 km/h (0 Bft)
03.06.2013 21:50 10,3 C 18,9 C 10,9 C 11,2 C 11,2 C 0,9 C 90 % 92 % 0 % 1019,6 hPa 0,0 l/m 0,0 km/h (0 Bft) W 270 0 min 0,0 UV-I 8,7 C 11,2 C 0,0 km/h (0 Bft)
03.06.2013 21:55 10,2 C 18,9 C 10,9 C 11,2 C 11,2 C 1,0 C 91 % 92 % 0 % 1020,1 hPa 0,0 l/m 0,0 km/h (0 Bft) W-NW 292 0 min 0,0 UV-I 8,8 C 11,2 C 0,0 km/h (0 Bft)
03.06.2013 22:00 10,3 C 18,9 C 10,8 C 11,2 C 11,2 C 0,9 C 91 % 92 % 0 % 1020,1 hPa 0,0 l/m 0,0 km/h (0 Bft) S 180 0 min 0,0 UV-I 8,9 C 11,2 C 0,0 km/h (0 Bft)
03.06.2013 22:05 10,3 C 18,9 C 10,9 C 11,2 C 11,2 C 0,9 C 91 % 92 % 0 % 1020,1 hPa 0,0 l/m 0,0 km/h (0 Bft) SO 135 0 min 0,0 UV-I 8,9 C 11,2 C 0,0 km/h (0 Bft)
03.06.2013 22:10 10,2 C 18,9 C 10,9 C 11,2 C 11,2 C 1,0 C 91 % 92 % 0 % 1020,1 hPa 0,0 l/m 0,0 km/h (0 Bft) NW 315 0 min 0,0 UV-I 8,8 C 11,2 C 0,0 km/h (0 Bft)
03.06.2013 22:15 10,1 C 18,9 C 10,9 C 11,1 C 11,1 C 1,0 C 91 % 92 % 0 % 1020,2 hPa 0,0 l/m 0,0 km/h (0 Bft) O-NO 67 0 min 0,0 UV-I 8,7 C 11,1 C 0,0 km/h (0 Bft)
03.06.2013 22:20 10,1 C 18,9 C 10,8 C 11,1 C 11,1 C 1,0 C 91 % 92 % 0 % 1020,2 hPa 0,0 l/m 0,0 km/h (0 Bft) O-NO 67 0 min 0,0 UV-I 8,7 C 11,1 C 0,0 km/h (0 Bft)
03.06.2013 22:25 10,1 C 18,9 C 10,8 C 11,1 C 11,1 C 1,0 C 91 % 92 % 0 % 1020,2 hPa 0,0 l/m 0,0 km/h (0 Bft) S-SO 157 0 min 0,0 UV-I 8,7 C 11,1 C 0,0 km/h (0 Bft)
03.06.2013 22:30 10,1 C 19,0 C 10,8 C 11,1 C 11,1 C 1,0 C 91 % 92 % 0 % 1020,2 hPa 0,0 l/m 0,0 km/h (0 Bft) O-NO 67 0 min 0,0 UV-I 8,7 C 11,1 C 0,0 km/h (0 Bft)
03.06.2013 22:35 10,1 C 18,9 C 10,8 C 11,1 C 11,1 C 1,0 C 91 % 92 % 0 % 1020,3 hPa 0,0 l/m 0,0 km/h (0 Bft) SO 135 0 min 0,0 UV-I 8,7 C 11,1 C 0,0 km/h (0 Bft)
03.06.2013 22:40 10,0 C 19,0 C 10,7 C 11,1 C 11,1 C 1,1 C 91 % 92 % 0 % 1020,3 hPa 0,0 l/m 0,0 km/h (0 Bft) O-NO 67 0 min 0,0 UV-I 8,6 C 11,1 C 0,0 km/h (0 Bft)
03.06.2013 22:45 10,0 C 19,0 C 10,7 C 11,0 C 11,0 C 1,0 C 91 % 92 % 0 % 1020,3 hPa 0,0 l/m 0,0 km/h (0 Bft) W-NW 292 0 min 0,0 UV-I 8,6 C 11,0 C 0,0 km/h (0 Bft)
03.06.2013 22:50 10,0 C 19,0 C 10,7 C 11,0 C 11,0 C 1,0 C 91 % 93 % 0 % 1020,3 hPa 0,0 l/m 0,2 km/h (0 Bft) O-NO 67 0 min 0,0 UV-I 8,6 C 11,0 C 1,8 km/h (1 Bft)
03.06.2013 22:55 10,0 C 19,0 C 10,7 C 11,0 C 11,0 C 1,0 C 91 % 93 % 0 % 1020,3 hPa 0,0 l/m 0,2 km/h (0 Bft) O-NO 67 0 min 0,0 UV-I 8,6 C 11,0 C 0,0 km/h (0 Bft)
03.06.2013 23:00 10,1 C 19,0 C 10,7 C 10,9 C 10,9 C 0,8 C 91 % 92 % 0 % 1020,3 hPa 0,0 l/m 0,0 km/h (0 Bft) SO 135 0 min 0,0 UV-I 8,7 C 10,9 C 0,0 km/h (0 Bft)
03.06.2013 23:05 10,1 C 19,0 C 10,7 C 10,9 C 10,9 C 0,8 C 91 % 93 % 0 % 1020,3 hPa 0,0 l/m 0,0 km/h (0 Bft) SO 135 0 min 0,0 UV-I 8,7 C 10,9 C 0,0 km/h (0 Bft)
03.06.2013 23:10 10,0 C 19,0 C 10,7 C 10,8 C 10,8 C 0,8 C 91 % 93 % 0 % 1020,3 hPa 0,0 l/m 0,0 km/h (0 Bft) W-NW 292 0 min 0,0 UV-I 8,6 C 10,8 C 0,0 km/h (0 Bft)
03.06.2013 23:15 9,9 C 19,0 C 10,7 C 10,7 C 10,7 C 0,8 C 91 % 93 % 0 % 1020,2 hPa 0,0 l/m 0,0 km/h (0 Bft) W 270 0 min 0,0 UV-I 8,5 C 10,7 C 0,0 km/h (0 Bft)
03.06.2013 23:20 9,9 C 19,0 C 10,7 C 10,7 C 10,7 C 0,8 C 91 % 93 % 0 % 1020,2 hPa 0,0 l/m 0,0 km/h (0 Bft) SO 135 0 min 0,0 UV-I 8,5 C 10,7 C 0,0 km/h (0 Bft)
03.06.2013 23:25 9,9 C 19,0 C 10,6 C 10,7 C 10,7 C 0,8 C 91 % 93 % 0 % 1020,2 hPa 0,0 l/m 0,0 km/h (0 Bft) N-NO 22 0 min 0,0 UV-I 8,5 C 10,7 C 0,0 km/h (0 Bft)
03.06.2013 23:30 9,8 C 19,0 C 10,5 C 10,6 C 10,6 C 0,8 C 91 % 93 % 0 % 1020,2 hPa 0,0 l/m 0,0 km/h (0 Bft) SW 225 0 min 0,0 UV-I 8,4 C 10,6 C 0,0 km/h (0 Bft)
03.06.2013 23:35 9,9 C 19,0 C 10,5 C 10,6 C 10,6 C 0,7 C 91 % 93 % 0 % 1020,2 hPa 0,0 l/m 0,0 km/h (0 Bft) NW 315 0 min 0,0 UV-I 8,5 C 10,6 C 0,0 km/h (0 Bft)
03.06.2013 23:40 9,9 C 19,0 C 10,5 C 10,6 C 10,6 C 0,7 C 91 % 93 % 0 % 1020,2 hPa 0,0 l/m 0,0 km/h (0 Bft) O-NO 67 0 min 0,0 UV-I 8,5 C 10,6 C 0,0 km/h (0 Bft)
03.06.2013 23:45 9,9 C 19,1 C 10,5 C 10,6 C 10,6 C 0,7 C 91 % 93 % 0 % 1020,2 hPa 0,0 l/m 0,0 km/h (0 Bft) O 90 0 min 0,0 UV-I 8,5 C 10,6 C 0,0 km/h (0 Bft)
03.06.2013 23:50 9,9 C 19,1 C 10,5 C 10,6 C 10,6 C 0,7 C 91 % 93 % 0 % 1020,2 hPa 0,0 l/m 0,0 km/h (0 Bft) S 180 0 min 0,0 UV-I 8,5 C 10,6 C 0,0 km/h (0 Bft)
03.06.2013 23:55 9,8 C 19,1 C 10,5 C 10,6 C 10,6 C 0,8 C 91 % 93 % 0 % 1020,1 hPa 0,0 l/m 0,0 km/h (0 Bft) SW 225 0 min 0,0 UV-I 8,4 C 10,6 C 0,0 km/h (0 Bft)
_ Min-Zeit 06:20 14:40 05:15 05:15 05:15 02:55 13:00 18:56 00:00 00:00 - 16:40 - - - 00:00 06:20 05:15 01:10
Minimum _ 6,5 C 18,6 C 7,5 C 6,7 C 6,6 C 0,0 C 89 % 92 % 0 % 1019,6 hPa - 0,0 km/h (0 Bft) - - - 0,0 UV-I 5,3 C 5,5 C 0,0 km/h (0 Bft)
_ Max-Zeit 19:35 00:00 20:05 19:10 19:10 11:45 00:00 00:00 11:45 07:00 00:30 03:25 - - 05:25 00:00 19:35 19:10 04:00
Maximum _ 10,9 C 20,0 C 11,4 C 12,7 C 12,7 C 3,0 C 93 % 93 % 79 % 1022,5 hPa 0,7 l/m 6,8 km/h
W-SW (2 Bft)
- - 5 min 0,0 UV-I 9,3 C 12,7 C 16,9 km/h
S-SW (3 Bft)
Durchschnitt _ 8,3 C 19,2 C 9,1 C 9,5 C 9,5 C 1,2 C 91 % 93 % 27 % 1020,9 hPa #7,6 l/m 2,8 km/h (1 Bft) SW - #1:20 h 0,0 UV-I 7,0 C 9,4 C 3,6 km/h (1 Bft)
2013 www.wetterstation-wechselburg.de